sensor_id;sensor_type;location;lat;lon;timestamp;pressure;altitude;pressure_sealevel;temperature;humidity
65376;BME280;51976;47.332;9.404;2023-02-10T00:00:03;94275.34;;;-4.18;63.54
65376;BME280;51976;47.332;9.404;2023-02-10T00:02:29;94281.34;;;-4.59;63.80
65376;BME280;51976;47.332;9.404;2023-02-10T00:04:55;94290.50;;;-4.97;65.18
65376;BME280;51976;47.332;9.404;2023-02-10T00:07:20;94293.03;;;-4.62;64.72
65376;BME280;51976;47.332;9.404;2023-02-10T00:09:46;94289.41;;;-4.61;64.27
65376;BME280;51976;47.332;9.404;2023-02-10T00:12:12;94299.00;;;-4.52;64.01
65376;BME280;51976;47.332;9.404;2023-02-10T00:14:38;94303.34;;;-4.68;63.85
65376;BME280;51976;47.332;9.404;2023-02-10T00:17:04;94276.91;;;-5.11;65.14
65376;BME280;51976;47.332;9.404;2023-02-10T00:19:30;94306.56;;;-5.00;64.56
65376;BME280;51976;47.332;9.404;2023-02-10T00:21:57;94247.84;;;-5.09;64.61
65376;BME280;51976;47.332;9.404;2023-02-10T00:24:22;94285.88;;;-5.21;64.90
65376;BME280;51976;47.332;9.404;2023-02-10T00:26:48;94284.88;;;-5.02;64.86
65376;BME280;51976;47.332;9.404;2023-02-10T00:29:14;94323.31;;;-4.58;63.96
65376;BME280;51976;47.332;9.404;2023-02-10T00:31:40;94321.88;;;-4.52;63.38
65376;BME280;51976;47.332;9.404;2023-02-10T00:34:06;94325.53;;;-4.71;64.41
65376;BME280;51976;47.332;9.404;2023-02-10T00:36:31;94313.28;;;-4.80;64.50
65376;BME280;51976;47.332;9.404;2023-02-10T00:38:56;94333.38;;;-4.79;64.41
65376;BME280;51976;47.332;9.404;2023-02-10T00:41:23;94339.97;;;-4.75;64.38
65376;BME280;51976;47.332;9.404;2023-02-10T00:43:48;94309.16;;;-4.83;63.84
65376;BME280;51976;47.332;9.404;2023-02-10T00:46:16;94344.00;;;-4.63;63.50
65376;BME280;51976;47.332;9.404;2023-02-10T00:48:43;94346.88;;;-4.74;63.51
65376;BME280;51976;47.332;9.404;2023-02-10T00:51:08;94351.72;;;-4.61;62.96
65376;BME280;51976;47.332;9.404;2023-02-10T00:53:34;94328.56;;;-4.84;63.36
65376;BME280;51976;47.332;9.404;2023-02-10T00:56:00;94317.44;;;-4.78;63.21
65376;BME280;51976;47.332;9.404;2023-02-10T00:58:26;94317.25;;;-5.02;63.51
65376;BME280;51976;47.332;9.404;2023-02-10T01:00:53;94272.50;;;-5.46;64.25
65376;BME280;51976;47.332;9.404;2023-02-10T01:03:19;94305.16;;;-5.13;63.90
65376;BME280;51976;47.332;9.404;2023-02-10T01:05:45;94349.53;;;-4.74;63.34
65376;BME280;51976;47.332;9.404;2023-02-10T01:08:11;94311.22;;;-5.12;63.55
65376;BME280;51976;47.332;9.404;2023-02-10T01:10:37;94329.50;;;-5.11;64.07
65376;BME280;51976;47.332;9.404;2023-02-10T01:13:04;94355.25;;;-4.96;64.50
65376;BME280;51976;47.332;9.404;2023-02-10T01:15:30;94347.78;;;-4.83;63.86
65376;BME280;51976;47.332;9.404;2023-02-10T01:17:56;94337.13;;;-4.82;63.50
65376;BME280;51976;47.332;9.404;2023-02-10T01:20:21;94358.16;;;-4.82;64.34
65376;BME280;51976;47.332;9.404;2023-02-10T01:22:47;94324.69;;;-4.97;63.76
65376;BME280;51976;47.332;9.404;2023-02-10T01:25:12;94355.69;;;-4.65;63.40
65376;BME280;51976;47.332;9.404;2023-02-10T01:27:37;94362.59;;;-4.82;63.48
65376;BME280;51976;47.332;9.404;2023-02-10T01:30:03;94352.69;;;-4.88;63.24
65376;BME280;51976;47.332;9.404;2023-02-10T01:32:29;94353.47;;;-5.31;64.11
65376;BME280;51976;47.332;9.404;2023-02-10T01:34:54;94365.91;;;-5.16;64.24
65376;BME280;51976;47.332;9.404;2023-02-10T01:37:19;94370.91;;;-4.95;64.21
65376;BME280;51976;47.332;9.404;2023-02-10T01:39:45;94355.66;;;-5.27;63.87
65376;BME280;51976;47.332;9.404;2023-02-10T01:42:13;94305.19;;;-5.48;64.22
65376;BME280;51976;47.332;9.404;2023-02-10T01:45:10;94373.75;;;-5.06;63.49
65376;BME280;51976;47.332;9.404;2023-02-10T01:47:37;94375.84;;;-5.09;64.08
65376;BME280;51976;47.332;9.404;2023-02-10T01:50:03;94368.75;;;-4.91;63.54
65376;BME280;51976;47.332;9.404;2023-02-10T01:52:28;94368.47;;;-4.88;63.47
65376;BME280;51976;47.332;9.404;2023-02-10T01:55:00;94321.16;;;-5.41;63.65
65376;BME280;51976;47.332;9.404;2023-02-10T01:57:28;94374.25;;;-5.38;63.88
65376;BME280;51976;47.332;9.404;2023-02-10T01:59:55;94385.69;;;-5.12;63.36
65376;BME280;51976;47.332;9.404;2023-02-10T02:02:21;94383.56;;;-5.08;63.09
65376;BME280;51976;47.332;9.404;2023-02-10T02:04:49;94346.16;;;-5.37;63.32
65376;BME280;51976;47.332;9.404;2023-02-10T02:07:16;94376.72;;;-5.19;63.34
65376;BME280;51976;47.332;9.404;2023-02-10T02:09:42;94349.84;;;-5.13;62.53
65376;BME280;51976;47.332;9.404;2023-02-10T02:12:26;94369.91;;;-5.12;62.97
65376;BME280;51976;47.332;9.404;2023-02-10T02:15:05;94384.78;;;-5.02;63.58
65376;BME280;51976;47.332;9.404;2023-02-10T02:17:39;94398.81;;;-5.12;63.28
65376;BME280;51976;47.332;9.404;2023-02-10T02:20:44;94357.66;;;-5.38;63.63
65376;BME280;51976;47.332;9.404;2023-02-10T02:23:20;94384.03;;;-5.30;63.54
65376;BME280;51976;47.332;9.404;2023-02-10T02:26:19;94362.16;;;-5.49;63.62
65376;BME280;51976;47.332;9.404;2023-02-10T02:29:31;94386.63;;;-5.48;64.62
65376;BME280;51976;47.332;9.404;2023-02-10T02:32:18;94385.44;;;-5.36;63.66
65376;BME280;51976;47.332;9.404;2023-02-10T02:34:52;94346.91;;;-5.63;64.32
65376;BME280;51976;47.332;9.404;2023-02-10T02:37:27;94382.03;;;-5.46;64.31
65376;BME280;51976;47.332;9.404;2023-02-10T02:39:54;94392.22;;;-5.16;64.00
65376;BME280;51976;47.332;9.404;2023-02-10T02:42:28;94348.66;;;-5.36;63.65
65376;BME280;51976;47.332;9.404;2023-02-10T02:45:05;94380.03;;;-5.17;63.44
65376;BME280;51976;47.332;9.404;2023-02-10T02:47:54;94372.16;;;-5.17;63.85
65376;BME280;51976;47.332;9.404;2023-02-10T02:50:41;94348.25;;;-5.59;64.26
65376;BME280;51976;47.332;9.404;2023-02-10T02:53:18;94394.63;;;-5.22;63.75
65376;BME280;51976;47.332;9.404;2023-02-10T02:56:14;94372.69;;;-5.13;62.96
65376;BME280;51976;47.332;9.404;2023-02-10T02:59:30;94389.53;;;-5.24;63.63
65376;BME280;51976;47.332;9.404;2023-02-10T03:01:39;94382.53;;;-4.97;62.46
65376;BME280;51976;47.332;9.404;2023-02-10T03:04:07;94289.31;;;-5.74;62.69
65376;BME280;51976;47.332;9.404;2023-02-10T03:06:35;94394.63;;;-5.22;63.13
65376;BME280;51976;47.332;9.404;2023-02-10T03:09:00;94385.53;;;-5.28;63.40
65376;BME280;51976;47.332;9.404;2023-02-10T03:11:26;94391.44;;;-5.71;63.95
65376;BME280;51976;47.332;9.404;2023-02-10T03:13:51;94277.41;;;-6.04;63.92
65376;BME280;51976;47.332;9.404;2023-02-10T03:16:17;94352.97;;;-5.45;65.23
65376;BME280;51976;47.332;9.404;2023-02-10T03:18:42;94381.25;;;-4.93;63.54
65376;BME280;51976;47.332;9.404;2023-02-10T03:21:07;94387.72;;;-5.05;63.13
65376;BME280;51976;47.332;9.404;2023-02-10T03:23:33;94380.41;;;-5.47;63.83
65376;BME280;51976;47.332;9.404;2023-02-10T03:26:00;94325.72;;;-5.61;63.76
65376;BME280;51976;47.332;9.404;2023-02-10T03:28:26;94379.06;;;-5.33;63.90
65376;BME280;51976;47.332;9.404;2023-02-10T03:30:52;94370.00;;;-5.21;63.34
65376;BME280;51976;47.332;9.404;2023-02-10T03:33:19;94377.44;;;-5.62;63.77
65376;BME280;51976;47.332;9.404;2023-02-10T03:35:45;94372.22;;;-5.71;64.60
65376;BME280;51976;47.332;9.404;2023-02-10T03:38:11;94372.88;;;-5.42;63.83
65376;BME280;51976;47.332;9.404;2023-02-10T03:40:36;94376.28;;;-5.32;63.90
65376;BME280;51976;47.332;9.404;2023-02-10T03:43:02;94370.78;;;-5.38;63.14
65376;BME280;51976;47.332;9.404;2023-02-10T03:45:28;94373.50;;;-5.48;64.22
65376;BME280;51976;47.332;9.404;2023-02-10T03:47:53;94357.63;;;-5.56;63.64
65376;BME280;51976;47.332;9.404;2023-02-10T03:50:19;94367.19;;;-5.55;64.18
65376;BME280;51976;47.332;9.404;2023-02-10T03:52:44;94349.59;;;-6.00;65.21
65376;BME280;51976;47.332;9.404;2023-02-10T03:55:09;94352.34;;;-5.92;65.46
65376;BME280;51976;47.332;9.404;2023-02-10T03:57:39;94360.69;;;-5.78;64.86
65376;BME280;51976;47.332;9.404;2023-02-10T04:00:06;94374.22;;;-6.01;65.95
65376;BME280;51976;47.332;9.404;2023-02-10T04:02:31;94357.88;;;-6.22;66.44
65376;BME280;51976;47.332;9.404;2023-02-10T04:04:57;94379.94;;;-5.60;65.13
65376;BME280;51976;47.332;9.404;2023-02-10T04:07:22;94360.13;;;-5.37;64.08
65376;BME280;51976;47.332;9.404;2023-02-10T04:09:47;94380.78;;;-5.69;64.31
65376;BME280;51976;47.332;9.404;2023-02-10T04:12:13;94390.84;;;-5.83;64.94
65376;BME280;51976;47.332;9.404;2023-02-10T04:14:38;94386.00;;;-5.87;65.10
65376;BME280;51976;47.332;9.404;2023-02-10T04:17:04;94400.16;;;-5.70;65.04
65376;BME280;51976;47.332;9.404;2023-02-10T04:19:29;94405.88;;;-5.48;63.95
65376;BME280;51976;47.332;9.404;2023-02-10T04:21:54;94402.88;;;-5.62;64.10
65376;BME280;51976;47.332;9.404;2023-02-10T04:24:20;94412.13;;;-5.58;64.16
65376;BME280;51976;47.332;9.404;2023-02-10T04:26:45;94410.59;;;-5.51;64.78
65376;BME280;51976;47.332;9.404;2023-02-10T04:29:10;94395.66;;;-5.33;64.01
65376;BME280;51976;47.332;9.404;2023-02-10T04:31:36;94415.69;;;-5.77;65.30
65376;BME280;51976;47.332;9.404;2023-02-10T04:34:01;94406.59;;;-5.55;64.88
65376;BME280;51976;47.332;9.404;2023-02-10T04:36:27;94410.91;;;-6.19;65.34
65376;BME280;51976;47.332;9.404;2023-02-10T04:38:52;94417.00;;;-5.63;64.74
65376;BME280;51976;47.332;9.404;2023-02-10T04:41:17;94410.94;;;-5.46;64.06
65376;BME280;51976;47.332;9.404;2023-02-10T04:43:43;94413.88;;;-5.49;63.37
65376;BME280;51976;47.332;9.404;2023-02-10T04:46:08;94384.63;;;-6.09;64.64
65376;BME280;51976;47.332;9.404;2023-02-10T04:48:34;94400.66;;;-5.57;63.47
65376;BME280;51976;47.332;9.404;2023-02-10T04:51:00;94398.41;;;-5.80;63.29
65376;BME280;51976;47.332;9.404;2023-02-10T04:53:25;94400.78;;;-5.86;63.94
65376;BME280;51976;47.332;9.404;2023-02-10T04:55:51;94403.34;;;-5.94;63.67
65376;BME280;51976;47.332;9.404;2023-02-10T04:58:16;94362.97;;;-6.21;64.40
65376;BME280;51976;47.332;9.404;2023-02-10T05:00:42;94398.91;;;-5.94;64.78
65376;BME280;51976;47.332;9.404;2023-02-10T05:03:07;94399.00;;;-5.58;63.96
65376;BME280;51976;47.332;9.404;2023-02-10T05:05:32;94401.13;;;-5.44;63.30
65376;BME280;51976;47.332;9.404;2023-02-10T05:07:58;94395.78;;;-5.52;62.99
65376;BME280;51976;47.332;9.404;2023-02-10T05:10:23;94288.47;;;-6.10;63.43
65376;BME280;51976;47.332;9.404;2023-02-10T05:12:48;94268.59;;;-6.40;63.33
65376;BME280;51976;47.332;9.404;2023-02-10T05:15:14;94388.53;;;-5.68;64.46
65376;BME280;51976;47.332;9.404;2023-02-10T05:17:40;94370.81;;;-5.66;63.51
65376;BME280;51976;47.332;9.404;2023-02-10T05:20:06;94390.31;;;-5.41;63.34
65376;BME280;51976;47.332;9.404;2023-02-10T05:22:35;94386.13;;;-5.79;63.01
65376;BME280;51976;47.332;9.404;2023-02-10T05:25:01;94401.78;;;-6.15;64.51
65376;BME280;51976;47.332;9.404;2023-02-10T05:27:26;94408.84;;;-6.25;64.59
65376;BME280;51976;47.332;9.404;2023-02-10T05:29:52;94382.38;;;-5.76;64.09
65376;BME280;51976;47.332;9.404;2023-02-10T05:32:17;94366.50;;;-6.02;64.83
65376;BME280;51976;47.332;9.404;2023-02-10T05:34:43;94329.78;;;-6.12;64.39
65376;BME280;51976;47.332;9.404;2023-02-10T05:37:08;94398.38;;;-6.34;65.11
65376;BME280;51976;47.332;9.404;2023-02-10T05:39:33;94410.91;;;-6.19;65.15
65376;BME280;51976;47.332;9.404;2023-02-10T05:41:59;94404.88;;;-5.74;63.80
65376;BME280;51976;47.332;9.404;2023-02-10T05:44:27;94410.94;;;-5.73;64.25
65376;BME280;51976;47.332;9.404;2023-02-10T05:46:52;94324.97;;;-6.17;64.09
65376;BME280;51976;47.332;9.404;2023-02-10T05:49:18;94388.41;;;-5.94;64.45
65376;BME280;51976;47.332;9.404;2023-02-10T05:51:44;94369.78;;;-6.00;65.28
65376;BME280;51976;47.332;9.404;2023-02-10T05:54:11;94399.94;;;-5.77;65.43
65376;BME280;51976;47.332;9.404;2023-02-10T05:56:37;94405.13;;;-5.67;64.25
65376;BME280;51976;47.332;9.404;2023-02-10T05:59:03;94319.44;;;-6.13;63.40
65376;BME280;51976;47.332;9.404;2023-02-10T06:01:29;94386.81;;;-6.04;64.33
65376;BME280;51976;47.332;9.404;2023-02-10T06:03:54;94405.06;;;-5.85;63.90
65376;BME280;51976;47.332;9.404;2023-02-10T06:06:20;94415.69;;;-5.77;63.61
65376;BME280;51976;47.332;9.404;2023-02-10T06:08:45;94400.19;;;-5.98;63.96
65376;BME280;51976;47.332;9.404;2023-02-10T06:11:11;94406.94;;;-5.95;64.07
65376;BME280;51976;47.332;9.404;2023-02-10T06:13:36;94422.25;;;-5.91;64.48
65376;BME280;51976;47.332;9.404;2023-02-10T06:16:02;94426.00;;;-5.66;63.64
65376;BME280;51976;47.332;9.404;2023-02-10T06:18:28;94433.53;;;-5.53;63.38
65376;BME280;51976;47.332;9.404;2023-02-10T06:20:54;94436.34;;;-5.64;63.70
65376;BME280;51976;47.332;9.404;2023-02-10T06:23:19;94357.47;;;-6.64;64.56
65376;BME280;51976;47.332;9.404;2023-02-10T06:25:46;94423.66;;;-6.33;64.58
65376;BME280;51976;47.332;9.404;2023-02-10T06:28:12;94448.66;;;-5.92;63.98
65376;BME280;51976;47.332;9.404;2023-02-10T06:30:37;94449.56;;;-5.84;62.86
65376;BME280;51976;47.332;9.404;2023-02-10T06:33:03;94470.84;;;-6.24;64.94
65376;BME280;51976;47.332;9.404;2023-02-10T06:35:28;94426.53;;;-6.27;64.65
65376;BME280;51976;47.332;9.404;2023-02-10T06:37:53;94414.59;;;-6.77;65.11
65376;BME280;51976;47.332;9.404;2023-02-10T06:40:19;94430.06;;;-6.65;64.75
65376;BME280;51976;47.332;9.404;2023-02-10T06:42:44;94478.03;;;-6.26;64.59
65376;BME280;51976;47.332;9.404;2023-02-10T06:45:10;94442.03;;;-6.53;65.36
65376;BME280;51976;47.332;9.404;2023-02-10T06:47:35;94477.81;;;-6.32;64.96
65376;BME280;51976;47.332;9.404;2023-02-10T06:50:02;94472.69;;;-6.43;65.19
65376;BME280;51976;47.332;9.404;2023-02-10T06:52:27;94495.88;;;-6.49;65.74
65376;BME280;51976;47.332;9.404;2023-02-10T06:54:53;94489.53;;;-6.56;65.42
65376;BME280;51976;47.332;9.404;2023-02-10T06:57:19;94491.00;;;-6.15;64.16
65376;BME280;51976;47.332;9.404;2023-02-10T06:59:45;94441.69;;;-6.11;63.40
65376;BME280;51976;47.332;9.404;2023-02-10T07:02:11;94491.53;;;-5.64;63.03
65376;BME280;51976;47.332;9.404;2023-02-10T07:04:36;94497.78;;;-6.22;63.73
65376;BME280;51976;47.332;9.404;2023-02-10T07:07:05;94457.88;;;-6.25;64.24
65376;BME280;51976;47.332;9.404;2023-02-10T07:09:31;94501.19;;;-5.92;63.88
65376;BME280;51976;47.332;9.404;2023-02-10T07:11:59;94488.47;;;-5.97;62.96
65376;BME280;51976;47.332;9.404;2023-02-10T07:14:24;94507.78;;;-5.88;63.02
65376;BME280;51976;47.332;9.404;2023-02-10T07:16:50;94503.66;;;-5.91;62.94
65376;BME280;51976;47.332;9.404;2023-02-10T07:19:20;94503.25;;;-5.96;63.66
65376;BME280;51976;47.332;9.404;2023-02-10T07:21:46;94503.03;;;-6.12;64.36
65376;BME280;51976;47.332;9.404;2023-02-10T07:24:11;94460.97;;;-6.49;64.90
65376;BME280;51976;47.332;9.404;2023-02-10T07:26:36;94499.16;;;-6.18;65.42
65376;BME280;51976;47.332;9.404;2023-02-10T07:29:02;94503.00;;;-5.65;64.33
65376;BME280;51976;47.332;9.404;2023-02-10T07:31:27;94472.44;;;-5.94;64.90
65376;BME280;51976;47.332;9.404;2023-02-10T07:33:53;94512.28;;;-5.71;65.22
65376;BME280;51976;47.332;9.404;2023-02-10T07:36:18;94497.56;;;-5.54;64.66
65376;BME280;51976;47.332;9.404;2023-02-10T07:38:43;94467.28;;;-5.49;63.68
65376;BME280;51976;47.332;9.404;2023-02-10T07:41:09;94499.28;;;-5.35;63.51
65376;BME280;51976;47.332;9.404;2023-02-10T07:43:34;94495.72;;;-5.44;63.59
65376;BME280;51976;47.332;9.404;2023-02-10T07:46:00;94486.25;;;-5.27;63.74
65376;BME280;51976;47.332;9.404;2023-02-10T07:48:26;94444.28;;;-5.47;63.41
65376;BME280;51976;47.332;9.404;2023-02-10T07:50:52;94442.28;;;-5.35;63.26
65376;BME280;51976;47.332;9.404;2023-02-10T07:53:18;94488.16;;;-5.20;63.12
65376;BME280;51976;47.332;9.404;2023-02-10T07:55:44;94486.50;;;-5.21;63.63
65376;BME280;51976;47.332;9.404;2023-02-10T07:58:09;94485.84;;;-4.87;63.13
65376;BME280;51976;47.332;9.404;2023-02-10T08:00:35;94456.63;;;-5.02;63.13
65376;BME280;51976;47.332;9.404;2023-02-10T08:03:00;94483.38;;;-4.71;62.69
65376;BME280;51976;47.332;9.404;2023-02-10T08:05:26;94483.78;;;-4.66;62.15
65376;BME280;51976;47.332;9.404;2023-02-10T08:07:53;94488.03;;;-4.65;61.75
65376;BME280;51976;47.332;9.404;2023-02-10T08:10:19;94458.44;;;-4.67;61.95
65376;BME280;51976;47.332;9.404;2023-02-10T08:12:44;94499.84;;;-4.33;62.00
65376;BME280;51976;47.332;9.404;2023-02-10T08:15:11;94495.91;;;-4.29;62.23
65376;BME280;51976;47.332;9.404;2023-02-10T08:17:37;94485.25;;;-4.02;61.95
65376;BME280;51976;47.332;9.404;2023-02-10T08:20:06;94485.88;;;-4.08;62.27
65376;BME280;51976;47.332;9.404;2023-02-10T08:22:33;94480.00;;;-4.02;61.82
65376;BME280;51976;47.332;9.404;2023-02-10T08:24:59;94480.38;;;-3.97;61.62
65376;BME280;51976;47.332;9.404;2023-02-10T08:27:25;94467.63;;;-4.27;61.79
65376;BME280;51976;47.332;9.404;2023-02-10T08:29:51;94495.09;;;-3.86;61.27
65376;BME280;51976;47.332;9.404;2023-02-10T08:32:16;94435.69;;;-4.06;60.98
65376;BME280;51976;47.332;9.404;2023-02-10T08:34:46;94507.97;;;-3.57;60.96
65376;BME280;51976;47.332;9.404;2023-02-10T08:37:11;94503.34;;;-3.55;61.21
65376;BME280;51976;47.332;9.404;2023-02-10T08:39:37;94500.19;;;-3.25;60.43
65376;BME280;51976;47.332;9.404;2023-02-10T08:42:02;94488.44;;;-3.38;60.54
65376;BME280;51976;47.332;9.404;2023-02-10T08:44:28;94504.66;;;-3.25;60.11
65376;BME280;51976;47.332;9.404;2023-02-10T08:46:53;94496.25;;;-3.29;60.97
65376;BME280;51976;47.332;9.404;2023-02-10T08:49:19;94474.03;;;-3.18;60.07
65376;BME280;51976;47.332;9.404;2023-02-10T08:51:44;94496.34;;;-3.04;60.45
65376;BME280;51976;47.332;9.404;2023-02-10T08:54:10;94497.72;;;-3.26;60.38
65376;BME280;51976;47.332;9.404;2023-02-10T08:56:35;94494.31;;;-3.19;60.48
65376;BME280;51976;47.332;9.404;2023-02-10T08:59:00;94513.06;;;-2.88;59.74
65376;BME280;51976;47.332;9.404;2023-02-10T09:01:26;94506.34;;;-2.66;59.71
65376;BME280;51976;47.332;9.404;2023-02-10T09:03:52;94498.44;;;-2.58;58.98
65376;BME280;51976;47.332;9.404;2023-02-10T09:06:22;94506.88;;;-2.46;59.51
65376;BME280;51976;47.332;9.404;2023-02-10T09:08:48;94495.00;;;-2.34;59.46
65376;BME280;51976;47.332;9.404;2023-02-10T09:11:15;94497.84;;;-2.19;59.23
65376;BME280;51976;47.332;9.404;2023-02-10T09:13:40;94493.88;;;-2.07;58.80
65376;BME280;51976;47.332;9.404;2023-02-10T09:16:06;94494.22;;;-2.26;59.34
65376;BME280;51976;47.332;9.404;2023-02-10T09:18:34;94484.44;;;-2.42;59.54
65376;BME280;51976;47.332;9.404;2023-02-10T09:21:00;94462.66;;;-2.12;59.20
65376;BME280;51976;47.332;9.404;2023-02-10T09:23:27;94439.72;;;-2.19;59.30
65376;BME280;51976;47.332;9.404;2023-02-10T09:25:58;94417.25;;;-2.07;58.41
65376;BME280;51976;47.332;9.404;2023-02-10T09:28:24;94477.81;;;-1.73;58.99
65376;BME280;51976;47.332;9.404;2023-02-10T09:30:50;94454.38;;;-1.76;58.44
65376;BME280;51976;47.332;9.404;2023-02-10T09:33:16;94449.91;;;-1.76;58.68
65376;BME280;51976;47.332;9.404;2023-02-10T09:35:42;94457.78;;;-1.59;58.08
65376;BME280;51976;47.332;9.404;2023-02-10T09:38:09;94484.78;;;-1.17;57.45
65376;BME280;51976;47.332;9.404;2023-02-10T09:40:59;94471.09;;;-1.28;57.19
65376;BME280;51976;47.332;9.404;2023-02-10T09:44:03;94481.72;;;-0.97;56.71
65376;BME280;51976;47.332;9.404;2023-02-10T09:46:56;94472.94;;;-0.59;56.26
65376;BME280;51976;47.332;9.404;2023-02-10T09:55:29;94478.56;;;-0.31;56.23
65376;BME280;51976;47.332;9.404;2023-02-10T09:58:10;94470.66;;;-0.39;55.64
65376;BME280;51976;47.332;9.404;2023-02-10T10:00:43;94479.91;;;-0.35;55.23
65376;BME280;51976;47.332;9.404;2023-02-10T10:03:18;94475.13;;;-0.17;55.52
65376;BME280;51976;47.332;9.404;2023-02-10T10:06:05;94444.81;;;-0.14;55.28
65376;BME280;51976;47.332;9.404;2023-02-10T10:08:54;94480.88;;;0.10;54.84
65376;BME280;51976;47.332;9.404;2023-02-10T10:11:46;94467.91;;;0.00;54.36
65376;BME280;51976;47.332;9.404;2023-02-10T10:14:19;94480.75;;;0.03;54.24
65376;BME280;51976;47.332;9.404;2023-02-10T10:17:34;94457.22;;;-0.15;54.40
65376;BME280;51976;47.332;9.404;2023-02-10T10:20:15;94477.81;;;0.21;53.23
65376;BME280;51976;47.332;9.404;2023-02-10T10:22:56;94434.69;;;0.04;52.79
65376;BME280;51976;47.332;9.404;2023-02-10T10:28:59;94426.06;;;0.25;52.01
65376;BME280;51976;47.332;9.404;2023-02-10T10:31:30;94470.28;;;0.47;52.08
65376;BME280;51976;47.332;9.404;2023-02-10T10:33:59;94466.03;;;0.23;52.56
65376;BME280;51976;47.332;9.404;2023-02-10T10:36:33;94432.09;;;0.33;52.53
65376;BME280;51976;47.332;9.404;2023-02-10T10:39:09;94453.88;;;0.58;52.55
65376;BME280;51976;47.332;9.404;2023-02-10T10:41:37;94386.91;;;0.56;52.28
65376;BME280;51976;47.332;9.404;2023-02-10T10:44:03;94447.41;;;0.90;52.54
65376;BME280;51976;47.332;9.404;2023-02-10T10:46:35;94426.28;;;0.67;52.96
65376;BME280;51976;47.332;9.404;2023-02-10T10:49:03;94423.59;;;0.82;53.22
65376;BME280;51976;47.332;9.404;2023-02-10T10:51:30;94448.88;;;0.78;53.29
65376;BME280;51976;47.332;9.404;2023-02-10T10:53:57;94437.50;;;0.84;52.98
65376;BME280;51976;47.332;9.404;2023-02-10T10:56:44;94425.78;;;0.93;53.16
65376;BME280;51976;47.332;9.404;2023-02-10T10:59:16;94439.81;;;1.02;53.02
65376;BME280;51976;47.332;9.404;2023-02-10T11:01:45;94434.19;;;1.12;53.14
65376;BME280;51976;47.332;9.404;2023-02-10T11:04:17;94447.63;;;1.25;51.89
65376;BME280;51976;47.332;9.404;2023-02-10T11:06:52;94439.91;;;1.09;51.71
65376;BME280;51976;47.332;9.404;2023-02-10T11:09:22;94425.66;;;1.31;51.93
65376;BME280;51976;47.332;9.404;2023-02-10T11:11:49;94399.75;;;1.18;52.89
65376;BME280;51976;47.332;9.404;2023-02-10T11:14:22;94380.28;;;1.32;52.82
65376;BME280;51976;47.332;9.404;2023-02-10T11:16:51;94414.59;;;1.70;52.17
65376;BME280;51976;47.332;9.404;2023-02-10T11:19:26;94427.22;;;1.83;51.62
65376;BME280;51976;47.332;9.404;2023-02-10T11:21:52;94422.63;;;1.77;49.41
65376;BME280;51976;47.332;9.404;2023-02-10T11:24:22;94425.75;;;1.80;48.92
65376;BME280;51976;47.332;9.404;2023-02-10T11:27:02;94418.78;;;1.79;48.94
65376;BME280;51976;47.332;9.404;2023-02-10T11:29:30;94426.56;;;2.02;48.50
65376;BME280;51976;47.332;9.404;2023-02-10T11:31:56;94432.34;;;1.84;49.06
65376;BME280;51976;47.332;9.404;2023-02-10T11:34:33;94421.13;;;1.89;49.22
65376;BME280;51976;47.332;9.404;2023-02-10T11:37:16;94402.00;;;1.79;49.89
65376;BME280;51976;47.332;9.404;2023-02-10T11:39:45;94420.69;;;1.85;50.59
65376;BME280;51976;47.332;9.404;2023-02-10T11:42:21;94384.63;;;2.04;50.29
65376;BME280;51976;47.332;9.404;2023-02-10T11:44:57;94408.91;;;2.22;50.88
65376;BME280;51976;47.332;9.404;2023-02-10T11:47:24;94409.53;;;2.46;51.23
65376;BME280;51976;47.332;9.404;2023-02-10T11:49:50;94402.63;;;2.02;52.42
65376;BME280;51976;47.332;9.404;2023-02-10T11:52:21;94336.81;;;1.83;52.51
65376;BME280;51976;47.332;9.404;2023-02-10T11:54:48;94366.66;;;2.06;52.69
65376;BME280;51976;47.332;9.404;2023-02-10T11:57:27;94404.50;;;2.08;52.88
65376;BME280;51976;47.332;9.404;2023-02-10T12:00:38;94364.13;;;1.98;52.80
65376;BME280;51976;47.332;9.404;2023-02-10T12:03:46;94395.66;;;2.57;53.06
65376;BME280;51976;47.332;9.404;2023-02-10T12:06:27;94403.06;;;2.33;53.33
65376;BME280;51976;47.332;9.404;2023-02-10T12:09:01;94394.16;;;2.20;53.78
65376;BME280;51976;47.332;9.404;2023-02-10T12:11:49;94387.41;;;2.52;53.00
65376;BME280;51976;47.332;9.404;2023-02-10T12:15:09;94382.47;;;2.49;53.38
65376;BME280;51976;47.332;9.404;2023-02-10T12:17:29;94359.47;;;2.34;53.55
65376;BME280;51976;47.332;9.404;2023-02-10T12:20:16;94376.47;;;2.33;53.35
65376;BME280;51976;47.332;9.404;2023-02-10T12:25:47;94370.63;;;2.51;53.16
65376;BME280;51976;47.332;9.404;2023-02-10T12:31:34;94376.75;;;2.45;53.51
65376;BME280;51976;47.332;9.404;2023-02-10T12:34:19;94350.34;;;2.50;52.71
65376;BME280;51976;47.332;9.404;2023-02-10T12:37:09;94363.81;;;2.77;52.88
65376;BME280;51976;47.332;9.404;2023-02-10T12:39:44;94373.19;;;2.66;53.18
65376;BME280;51976;47.332;9.404;2023-02-10T12:42:50;94371.78;;;2.35;54.63
65376;BME280;51976;47.332;9.404;2023-02-10T12:45:28;94364.41;;;2.37;54.96
65376;BME280;51976;47.332;9.404;2023-02-10T12:48:26;94360.94;;;2.78;54.12
65376;BME280;51976;47.332;9.404;2023-02-10T12:51:25;94359.13;;;3.39;54.69
65376;BME280;51976;47.332;9.404;2023-02-10T12:53:54;94355.88;;;3.51;53.03
65376;BME280;51976;47.332;9.404;2023-02-10T12:56:24;94352.13;;;3.25;53.40
65376;BME280;51976;47.332;9.404;2023-02-10T12:59:04;94326.75;;;3.49;53.54
65376;BME280;51976;47.332;9.404;2023-02-10T13:01:37;94353.03;;;3.52;52.23
65376;BME280;51976;47.332;9.404;2023-02-10T13:04:21;94361.69;;;3.81;52.86
65376;BME280;51976;47.332;9.404;2023-02-10T13:06:54;94360.59;;;3.62;53.00
65376;BME280;51976;47.332;9.404;2023-02-10T13:09:41;94351.00;;;4.00;52.38
65376;BME280;51976;47.332;9.404;2023-02-10T13:12:20;94340.44;;;3.20;51.26
65376;BME280;51976;47.332;9.404;2023-02-10T13:14:49;94350.22;;;3.13;52.22
65376;BME280;51976;47.332;9.404;2023-02-10T13:17:16;94344.28;;;3.11;51.01
65376;BME280;51976;47.332;9.404;2023-02-10T13:20:03;94342.75;;;3.62;50.98
65376;BME280;51976;47.332;9.404;2023-02-10T13:23:02;94345.25;;;3.97;51.52
65376;BME280;51976;47.332;9.404;2023-02-10T13:25:54;94348.69;;;3.58;49.96
65376;BME280;51976;47.332;9.404;2023-02-10T13:28:28;94353.25;;;3.70;50.38
65376;BME280;51976;47.332;9.404;2023-02-10T13:31:21;94353.16;;;3.24;51.51
65376;BME280;51976;47.332;9.404;2023-02-10T13:34:03;94352.03;;;3.05;51.81